Terminal Aerodrome Forecast
Issued by NWS Cleveland, OH

Home | Current Version | Previous Version | Graphics & Text | Print | Product List | Glossary On
Versions: 1 2 3 4 5 6 7 8 9 10 11 12 13 14 15 16 17 18 19 20 21 22 23
000
FTUS41 KCLE 262014 AAA
TAFCAK
TAF AMD
KCAK 262014Z 2620/2718 20012G20KT P6SM -SHRA BKN040 OVC080
      TEMPO 2620/2623 3SM SHRA OVC025
     FM270100 19007KT 6SM -SHRA VCTS BKN025CB OVC035
      TEMPO 2701/2704 2SM -TSRA BKN015CB
     FM270400 20006KT 5SM BR BKN015
     FM270700 21005KT 2SM BR OVC008
     FM271400 23006KT P6SM OVC015=

USA.gov is the U.S. government's official web portal to all federal, state and local government web resources and services.